createdAt,value
2023-01-17T00:00:53.400Z,101404.94
2023-01-17T00:03:21.437Z,101401.50
2023-01-17T00:06:10.225Z,101401.00
2023-01-17T00:08:59.959Z,101399.41
2023-01-17T00:11:28.667Z,101399.63
2023-01-17T00:13:57.527Z,101395.81
2023-01-17T00:16:26.531Z,101397.41
2023-01-17T00:19:14.776Z,101390.81
2023-01-17T00:22:02.942Z,101378.13
2023-01-17T00:24:50.749Z,101386.38
2023-01-17T00:27:19.145Z,101384.91
2023-01-17T00:29:47.956Z,101373.47
2023-01-17T00:32:16.667Z,101372.59
2023-01-17T00:34:47.240Z,101364.56
2023-01-17T00:37:15.924Z,101371.22
2023-01-17T00:39:44.197Z,101371.66
2023-01-17T00:42:15.077Z,101368.47
2023-01-17T00:45:02.746Z,101371.44
2023-01-17T00:47:53.071Z,101367.09
2023-01-17T00:50:41.827Z,101369.63
2023-01-17T00:53:30.681Z,101370.78
2023-01-17T00:56:23.074Z,101358.91
2023-01-17T00:59:12.793Z,101356.50
2023-01-17T01:02:02.677Z,101356.06
2023-01-17T01:04:50.770Z,101353.47
2023-01-17T01:07:37.882Z,101345.16
2023-01-17T01:10:25.451Z,101342.69
2023-01-17T01:13:12.729Z,101344.56
2023-01-17T01:16:03.393Z,101337.56
2023-01-17T01:18:53.231Z,101336.50
2023-01-17T01:21:42.638Z,101332.81
2023-01-17T01:24:30.778Z,101325.53
2023-01-17T01:27:19.076Z,101321.03
2023-01-17T01:30:05.758Z,101322.72
2023-01-17T01:32:55.499Z,101320.50
2023-01-17T01:35:27.520Z,101317.22
2023-01-17T01:38:04.866Z,101319.34
2023-01-17T01:40:33.290Z,101323.91
2023-01-17T01:43:05.982Z,101322.34
2023-01-17T01:45:36.379Z,101317.44
2023-01-17T01:48:34.321Z,101315.06
2023-01-17T01:51:09.317Z,101308.81
2023-01-17T01:53:43.891Z,101317.44
2023-01-17T01:56:15.521Z,101314.16
2023-01-17T01:58:49.104Z,101310.31
2023-01-17T02:01:19.229Z,101301.16
2023-01-17T02:03:48.572Z,101298.75
2023-01-17T02:06:39.582Z,101293.63
2023-01-17T02:09:11.925Z,101294.06
2023-01-17T02:11:45.987Z,101297.25
2023-01-17T02:14:18.874Z,101296.09
2023-01-17T02:17:11.257Z,101288.53
2023-01-17T02:20:27.401Z,101294.41
2023-01-17T02:23:32.823Z,101284.19
2023-01-17T02:26:27.048Z,101288.25
2023-01-17T02:29:32.338Z,101276.91
2023-01-17T02:32:34.138Z,101263.34
2023-01-17T02:35:35.165Z,101261.91
2023-01-17T02:38:18.228Z,101256.94
2023-01-17T02:40:58.451Z,101256.38
2023-01-17T02:43:28.893Z,101253.59
2023-01-17T02:45:59.205Z,101243.13
2023-01-17T02:48:33.495Z,101247.53
2023-01-17T02:51:33.547Z,101248.81
2023-01-17T02:54:08.273Z,101251.88
2023-01-17T02:57:12.272Z,101241.28
2023-01-17T02:59:59.306Z,101241.50
2023-01-17T03:03:03.493Z,101244.16
2023-01-17T03:06:12.674Z,101248.38
2023-01-17T03:08:55.605Z,101244.50
2023-01-17T03:11:27.977Z,101243.13
2023-01-17T03:13:59.757Z,101239.63
2023-01-17T03:16:31.872Z,101242.59
2023-01-17T03:19:01.350Z,101244.94
2023-01-17T03:21:31.519Z,101249.19
2023-01-17T03:24:00.550Z,101245.81
2023-01-17T03:26:32.409Z,101247.84
2023-01-17T03:29:02.144Z,101242.81
2023-01-17T03:31:33.100Z,101242.00
2023-01-17T03:34:02.001Z,101240.09
2023-01-17T03:36:30.173Z,101245.31
2023-01-17T03:39:03.168Z,101250.50
2023-01-17T03:41:31.221Z,101234.28
2023-01-17T03:44:01.061Z,101240.03
2023-01-17T03:46:29.292Z,101229.06
2023-01-17T03:48:58.233Z,101230.13
2023-01-17T03:51:26.765Z,101240.97
2023-01-17T03:53:56.139Z,101240.03
2023-01-17T03:56:26.291Z,101242.88
2023-01-17T03:58:59.170Z,101247.34
2023-01-17T04:01:27.329Z,101245.66
2023-01-17T04:03:58.927Z,101246.06
2023-01-17T04:06:28.673Z,101241.41
2023-01-17T04:08:58.259Z,101238.69
2023-01-17T04:11:26.200Z,101236.97
2023-01-17T04:13:56.515Z,101236.44
2023-01-17T04:16:29.189Z,101224.25
2023-01-17T04:19:01.190Z,101225.97
2023-01-17T04:21:30.593Z,101222.66
2023-01-17T04:23:58.258Z,101229.03
2023-01-17T04:26:28.304Z,101230.81
2023-01-17T04:28:57.202Z,101226.63
2023-01-17T04:31:25.170Z,101230.41
2023-01-17T04:33:57.265Z,101236.97
2023-01-17T04:36:26.322Z,101240.38
2023-01-17T04:38:54.185Z,101238.06
2023-01-17T04:41:24.115Z,101245.66
2023-01-17T04:43:52.294Z,101244.19
2023-01-17T04:46:21.119Z,101242.28
2023-01-17T04:48:52.711Z,101245.13
2023-01-17T04:51:23.792Z,101239.75
2023-01-17T07:43:14.823Z,101174.78
2023-01-17T07:45:46.263Z,101177.84
2023-01-17T07:48:23.245Z,101176.78
2023-01-17T07:50:57.592Z,101184.16
2023-01-17T07:53:35.480Z,101171.59
2023-01-17T07:56:08.974Z,101168.25
2023-01-17T07:58:37.889Z,101177.06
2023-01-17T08:01:10.290Z,101181.28
2023-01-17T08:03:40.467Z,101181.53
2023-01-17T08:06:22.401Z,101179.84
2023-01-17T08:08:51.341Z,101180.56
2023-01-17T08:11:22.376Z,101185.88
2023-01-17T08:14:00.385Z,101187.81
2023-01-17T08:16:31.101Z,101183.69
2023-01-17T08:19:02.437Z,101177.63
2023-01-17T08:21:32.706Z,101183.19
2023-01-17T08:24:01.256Z,101177.84
2023-01-17T08:26:31.513Z,101162.50
2023-01-17T08:29:09.598Z,101160.38
2023-01-17T08:31:41.316Z,101158.41
2023-01-17T08:34:14.495Z,101166.13
2023-01-17T08:36:56.952Z,101170.72
2023-01-17T08:39:34.278Z,101184.94
2023-01-17T08:42:14.583Z,101180.28
2023-01-17T08:44:45.338Z,101175.31
2023-01-17T08:47:15.755Z,101164.72
2023-01-17T08:49:44.604Z,101162.00
2023-01-17T08:52:15.138Z,101159.53
2023-01-17T08:54:45.756Z,101158.56
2023-01-17T08:57:17.571Z,101151.72
2023-01-17T08:59:47.229Z,101137.59
2023-01-17T09:02:19.875Z,101140.88
2023-01-17T09:04:52.775Z,101146.47
2023-01-17T09:07:21.213Z,101140.09
2023-01-17T09:09:53.268Z,101136.06
2023-01-17T09:12:24.644Z,101144.63
2023-01-17T09:14:53.639Z,101143.03
2023-01-17T09:17:31.818Z,101130.47
2023-01-17T09:20:00.781Z,101135.22
2023-01-17T09:22:37.424Z,101135.84
2023-01-17T09:25:07.590Z,101133.88
2023-01-17T09:27:39.844Z,101132.47
2023-01-17T09:30:08.276Z,101123.72
2023-01-17T09:32:40.809Z,101128.50
2023-01-17T09:35:09.199Z,101131.66
2023-01-17T09:37:38.864Z,101127.03
2023-01-17T09:40:07.789Z,101124.28
2023-01-17T09:42:40.467Z,101126.72
2023-01-17T09:45:17.667Z,101128.38
2023-01-17T09:47:54.240Z,101127.38
2023-01-17T09:51:00.665Z,101113.34
2023-01-17T09:53:37.421Z,101113.34
2023-01-17T09:56:30.882Z,101108.78
2023-01-17T09:59:35.715Z,101107.38
2023-01-17T10:02:59.229Z,101104.69
2023-01-17T10:05:51.932Z,101101.34
2023-01-17T10:08:48.407Z,101094.72
2023-01-17T10:11:40.460Z,101092.72
2023-01-17T10:14:48.663Z,101088.94
2023-01-17T10:17:23.528Z,101097.09
2023-01-17T10:20:40.168Z,101096.41
2023-01-17T10:23:38.111Z,101087.69
2023-01-17T10:26:29.441Z,101085.03
2023-01-17T10:29:08.273Z,101086.00
2023-01-17T10:31:46.248Z,101091.47
2023-01-17T10:34:19.839Z,101106.53
2023-01-17T10:37:06.773Z,101111.56
2023-01-17T10:39:36.688Z,101119.81
2023-01-17T10:42:31.892Z,101120.88
2023-01-17T10:45:17.104Z,101113.41
2023-01-17T10:48:00.318Z,101106.59
2023-01-17T10:51:10.829Z,101102.38
2023-01-17T10:54:19.094Z,101090.81
2023-01-17T10:56:48.847Z,101077.13
2023-01-17T10:59:40.275Z,101072.03
2023-01-17T11:02:50.950Z,101065.47
2023-01-17T11:05:26.290Z,101046.75
2023-01-17T11:08:04.171Z,101032.44
2023-01-17T11:10:50.904Z,101041.69
2023-01-17T11:13:37.193Z,101054.34
2023-01-17T11:16:10.407Z,101037.28
2023-01-17T11:18:40.812Z,101033.34
2023-01-17T11:21:26.359Z,101038.69
2023-01-17T11:24:00.165Z,101025.47
2023-01-17T11:26:34.766Z,101027.47
2023-01-17T11:29:31.707Z,101032.50
2023-01-17T11:32:33.280Z,101024.50
2023-01-17T11:35:36.262Z,101024.63
2023-01-17T11:38:09.175Z,101025.59
2023-01-17T11:40:48.599Z,101016.75
2023-01-17T11:43:30.658Z,101012.66
2023-01-17T11:46:20.684Z,101005.47
2023-01-17T11:52:27.540Z,100998.88
2023-01-17T11:58:16.746Z,100995.25
2023-01-17T12:01:05.437Z,101001.44
2023-01-17T12:04:17.626Z,100996.03
2023-01-17T12:07:24.425Z,100999.91
2023-01-17T12:10:09.236Z,101006.66
2023-01-17T12:19:52.849Z,101003.00
2023-01-17T12:23:09.423Z,101005.94
2023-01-17T12:32:40.984Z,100993.28
2023-01-17T12:35:36.826Z,101008.25
2023-01-17T12:42:19.355Z,101008.69
2023-01-17T12:45:38.097Z,101005.94
2023-01-17T12:48:19.594Z,101010.28
2023-01-17T12:55:03.811Z,101000.66
2023-01-17T17:01:27.271Z,101052.28
2023-01-17T17:19:06.683Z,101036.81
2023-01-17T17:24:41.876Z,101041.59
2023-01-17T17:30:25.180Z,101061.13
2023-01-17T17:33:07.898Z,101046.94
2023-01-17T17:35:55.330Z,101050.59
2023-01-17T17:39:01.522Z,101033.44
2023-01-17T17:41:39.296Z,101049.75
2023-01-17T17:44:28.158Z,101046.66
2023-01-17T17:53:14.002Z,101046.88
2023-01-17T17:55:56.380Z,101069.16
2023-01-17T17:58:39.570Z,101053.50
2023-01-17T18:16:23.841Z,101050.16
2023-01-17T18:19:02.826Z,101047.63
2023-01-17T18:21:47.858Z,101036.41
2023-01-17T18:27:11.184Z,101050.84
2023-01-17T18:29:45.092Z,101044.44
2023-01-17T18:38:20.374Z,101034.59
2023-01-17T18:47:07.487Z,101057.50
2023-01-17T18:50:04.553Z,101071.13
2023-01-17T18:52:49.186Z,101065.06
2023-01-17T18:55:31.147Z,101057.47
2023-01-17T18:58:14.930Z,101057.91
2023-01-17T19:31:32.586Z,101044.69
2023-01-17T19:43:34.102Z,101040.47
2023-01-17T19:46:22.309Z,101038.91
2023-01-17T19:49:13.537Z,101054.13
2023-01-17T19:57:44.665Z,101064.66
2023-01-17T20:00:25.520Z,101059.72
2023-01-17T20:03:17.156Z,101060.44
2023-01-17T20:18:27.380Z,101054.94
2023-01-17T20:21:20.979Z,101055.09
2023-01-17T20:29:47.189Z,101058.88
2023-01-17T20:35:45.718Z,101057.63
2023-01-17T20:41:41.795Z,101083.47
2023-01-17T20:44:16.786Z,101077.81
2023-01-17T20:53:02.491Z,101053.53
2023-01-17T21:05:18.058Z,101028.00
2023-01-17T21:08:11.222Z,101034.31
2023-01-17T21:20:27.022Z,101042.34
2023-01-17T21:23:11.330Z,101041.19
2023-01-17T21:25:55.650Z,101033.03
2023-01-17T21:28:34.187Z,101037.53
2023-01-17T21:31:40.000Z,101044.84
2023-01-17T21:37:29.405Z,101043.16
2023-01-17T21:49:20.867Z,101037.78
2023-01-17T22:04:45.618Z,101042.84
2023-01-17T22:07:38.053Z,101053.22
2023-01-17T22:22:55.680Z,101041.69
2023-01-17T22:28:31.518Z,101039.81
2023-01-17T22:31:31.757Z,101036.34
2023-01-17T22:34:17.197Z,101030.88
2023-01-17T22:36:59.459Z,101035.34
